Kitty C — 2EIQ6 — position and weather

sailwx.info

Track history (hours):
 
Tides and Currents Weather Stations Pressure Air Temp Water Temp Dewpoint Dewpoint Depression Visibility Wind Speed Wind Dir Waves Ship Positions

Kitty C

Last reported at 2016-Jul-31 05:33 UTC. Time now 2016-Jul-31 07:25 UTC.
Position N 53°28' W 003°22'.

Length 106 m; draft 6.8 m.

Type: Cargo ship. MMSI: 235085464.

Date/timePositionNaut miles runAvg speedWind from/ knotsBaromVisibWave heightAir tempDewpointWater temp
2016-Jul-31 05:33N 53°28' W 003°22'0 0.0
2016-Jul-31 04:30N 53°28' W 003°22'0 0.0
2016-Jul-31 03:33N 53°28' W 003°22'0 0.1
2016-Jul-31 02:30N 53°28' W 003°23'0 0.0
2016-Jul-31 01:33N 53°28' W 003°23'0 0.0
2016-Jul-31 00:33N 53°28' W 003°23'0 0.0
2016-Jul-30 22:30N 53°28' W 003°23'0 0.2
2016-Jul-30 21:33N 53°28' W 003°22'0 0.1
2016-Jul-30 20:27N 53°28' W 003°22'0 0.0
2016-Jul-30 19:33N 53°28' W 003°22'0 0.0
2016-Jul-30 18:33N 53°28' W 003°22'0 0.0
2016-Jul-30 17:30N 53°28' W 003°22'0 0.0
2016-Jul-30 16:33N 53°28' W 003°22'0 0.0
2016-Jul-30 15:33N 53°28' W 003°22'0 0.0
2016-Jul-30 14:24N 53°28' W 003°22'0 0.1
2016-Jul-30 13:30N 53°28' W 003°23'0 0.0
2016-Jul-30 12:33N 53°28' W 003°23'2 1.6
2016-Jul-30 11:33N 53°29' W 003°25'9 9.0
2016-Jul-30 10:33N 53°30' W 003°40'103 9.4
2016-Jul-29 23:33N 52°13' W 005°32'12 8.5
2016-Jul-29 22:06N 52°01' W 005°38'77 9.9
2016-Jul-29 14:18N 50°45' W 005°51'710.0
2016-Jul-29 13:33N 50°37' W 005°51'1310.1
2016-Jul-29 12:18N 50°25' W 005°52'810.2
2016-Jul-29 11:32N 50°17' W 005°51'53 7.6
2016-Jul-29 04:33N 49°59' W 004°33'10 9.5
2016-Jul-29 03:31N 50°01' W 004°18'9 9.2
2016-Jul-29 02:29N 50°03' W 004°03'9 9.0
2016-Jul-29 01:28N 50°05' W 003°49'9 8.9
2016-Jul-29 00:30N 50°06' W 003°36'9 9.5
2016-Jul-28 23:34N 50°07' W 003°22'10 9.8
2016-Jul-28 22:33N 50°09' W 003°07'1110.7
2016-Jul-28 21:33N 50°11' W 002°51'1111.5
2016-Jul-28 20:34N 50°13' W 002°33'92 9.2
2016-Jul-28 10:33N 50°31' W 000°11'1110.8
2016-Jul-28 09:31N 50°33' E 000°06'1010.7
2016-Jul-28 08:32N 50°35' E 000°22'45 9.1
2016-Jul-28 03:33N 51°01' E 001°21'1010.5
2016-Jul-28 02:34N 51°08' E 001°35'1111.3
2016-Jul-28 01:33N 51°16' E 001°47'1111.2
2016-Jul-28 00:33N 51°26' E 001°53'1010.0
2016-Jul-27 23:34N 51°34' E 002°04'10 9.4
2016-Jul-27 22:32N 51°41' E 002°15'154 9.0
2016-Jul-27 05:33N 53°34' E 005°05'1110.7
2016-Jul-27 04:33N 53°37' E 005°22'1010.2
2016-Jul-27 03:34N 53°41' E 005°38'10 9.5
2016-Jul-27 02:34N 53°44' E 005°53'9 8.9
2016-Jul-27 01:33N 53°47' E 006°08'9 8.7
2016-Jul-27 00:34N 53°50' E 006°21'9 8.8
2016-Jul-26 23:34N 53°52' E 006°36'9 9.5
2016-Jul-26 22:33N 53°54' E 006°52'1110.5
2016-Jul-26 21:33N 53°57' E 007°09'1111.1
2016-Jul-26 20:33N 53°60' E 007°27'1111.1
2016-Jul-26 19:33N 54°02' E 007°46'1111.4
2016-Jul-26 18:33N 54°01' E 008°05'1511.5
2016-Jul-26 17:17N 53°59' E 008°30'7 9.5
2016-Jul-26 16:33N 53°56' E 008°40'8 7.7
2016-Jul-26 15:32N 53°51' E 008°50'7 7.6
2016-Jul-26 14:33N 53°52' E 009°03'4 4.0
2016-Jul-26 13:33N 53°54' E 009°09'4 3.6
2016-Jul-26 12:33N 53°56' E 009°13'8 8.1
2016-Jul-26 11:33N 54°04' E 009°19'27 6.4
2016-Jul-26 07:16N 54°21' E 009°55'5 6.5
2016-Jul-26 06:33N 54°22' E 010°03'3 2.8
2016-Jul-26 05:33N 54°22' E 010°08'1 0.5
2016-Jul-26 04:33N 54°22' E 010°09'3 3.1
2016-Jul-26 03:33N 54°24' E 010°12'20 8.8
2016-Jul-26 01:19N 54°35' E 010°41'7 9.2
2016-Jul-26 00:33N 54°36' E 010°53'9 8.6
2016-Jul-25 23:33N 54°37' E 011°08'9 8.8
2016-Jul-25 22:34N 54°33' E 011°22'9 9.1
2016-Jul-25 21:33N 54°29' E 011°36'8 8.5
2016-Jul-25 20:33N 54°26' E 011°49'9 9.3
2016-Jul-25 19:33N 54°26' E 012°05'9 9.1
2016-Jul-25 18:33N 54°34' E 012°13'10 9.3
2016-Jul-25 17:32N 54°41' E 012°25'9 9.6
2016-Jul-25 16:33N 54°46' E 012°39'9 9.3
2016-Jul-25 15:34N 54°50' E 012°53'9 9.3
2016-Jul-25 14:33N 54°53' E 013°09'9 9.3
2016-Jul-25 13:33N 54°50' E 013°25'1010.0
2016-Jul-25 12:33N 54°47' E 013°41'1010.0
2016-Jul-25 11:33N 54°44' E 013°57'1010.1
2016-Jul-25 10:33N 54°40' E 014°13'20 9.8
2016-Jul-25 08:33N 54°40' E 014°47'20 9.9
2016-Jul-25 06:32N 54°43' E 015°22'41 9.4
2016-Jul-25 02:11N 54°49' E 016°32'6 9.3
2016-Jul-25 01:33N 54°50' E 016°42'10 9.6
2016-Jul-25 00:33N 54°52' E 016°59'10 9.8
2016-Jul-24 23:33N 54°54' E 017°15'39 9.8
2016-Jul-24 19:33N 54°59' E 018°23'9 8.9
2016-Jul-24 18:33N 54°55' E 018°37'1110.6
2016-Jul-24 17:33N 54°47' E 018°48'10 9.7
2016-Jul-24 16:33N 54°38' E 018°56'1010.3
2016-Jul-24 15:33N 54°30' E 018°46'7 7.3
2016-Jul-24 14:33N 54°23' E 018°40'2 1.6
2016-Jul-24 13:31N 54°22' E 018°40'0 0.0
2016-Jul-24 12:31N 54°22' E 018°40'0 0.0
2016-Jul-24 11:31N 54°22' E 018°40'0 0.0
2016-Jul-24 10:31N 54°22' E 018°40'0 0.0
2016-Jul-24 09:31N 54°22' E 018°40'0 0.0
2016-Jul-24 08:28N 54°22' E 018°40'0 0.0
2016-Jul-24 07:31N 54°22' E 018°40'0 0.0
2016-Jul-24 06:31N 54°22' E 018°40'0 0.0
2016-Jul-24 05:31N 54°22' E 018°40'0 0.0
2016-Jul-24 04:31N 54°22' E 018°40'0 0.0
2016-Jul-24 03:31N 54°22' E 018°40'0 0.0
2016-Jul-24 02:31N 54°22' E 018°40'0 0.0
2016-Jul-24 01:31N 54°22' E 018°40'0 0.0
2016-Jul-24 00:31N 54°22' E 018°40'0 0.0
2016-Jul-23 23:31N 54°22' E 018°40'0 0.0
2016-Jul-23 22:31N 54°22' E 018°40'0 0.0
2016-Jul-23 21:31N 54°22' E 018°40'0 0.0
2016-Jul-23 20:31N 54°22' E 018°40'0 0.0
2016-Jul-23 19:31N 54°22' E 018°40'0 0.0
2016-Jul-23 18:31N 54°22' E 018°40'0 0.0
2016-Jul-23 17:31N 54°22' E 018°40'0 0.0
2016-Jul-23 16:31N 54°22' E 018°40'0 0.0
2016-Jul-23 15:28N 54°22' E 018°40'0 0.0
2016-Jul-23 14:31N 54°22' E 018°40'0 0.0
2016-Jul-23 13:31N 54°22' E 018°40'0 0.0
2016-Jul-23 12:31N 54°22' E 018°40'0 0.0
2016-Jul-23 11:31N 54°22' E 018°40'0 0.0
2016-Jul-23 10:31N 54°22' E 018°40'0 0.0
2016-Jul-23 09:31N 54°22' E 018°40'0 0.0
2016-Jul-23 08:31N 54°22' E 018°40'0 0.0
2016-Jul-23 07:31N 54°22' E 018°40'0 0.0
2016-Jul-23 06:31N 54°22' E 018°40'0 0.0
2016-Jul-23 04:31N 54°22' E 018°40'0 0.0
2016-Jul-23 03:31N 54°22' E 018°40'0 0.0
2016-Jul-23 02:31N 54°22' E 018°40'0 0.0
2016-Jul-23 01:31N 54°22' E 018°40'1 0.7
2016-Jul-23 00:33N 54°22' E 018°40'5 4.9
2016-Jul-22 23:32N 54°27' E 018°40'0 0.1
2016-Jul-22 22:32N 54°27' E 018°40'0 0.0
2016-Jul-22 21:32N 54°27' E 018°40'0 0.0
2016-Jul-22 20:32N 54°27' E 018°40'0 0.0
2016-Jul-22 19:32N 54°27' E 018°40'0 0.0
2016-Jul-22 18:32N 54°27' E 018°40'0 0.0
2016-Jul-22 17:32N 54°27' E 018°40'0 0.0
2016-Jul-22 16:32N 54°27' E 018°40'0 0.0
2016-Jul-22 15:29N 54°27' E 018°40'0 0.0
2016-Jul-22 14:32N 54°27' E 018°40'0 0.0
2016-Jul-22 13:32N 54°27' E 018°40'0 0.0
2016-Jul-22 12:32N 54°27' E 018°40'0 0.0
2016-Jul-22 11:32N 54°27' E 018°40'0 0.0
2016-Jul-22 10:32N 54°27' E 018°40'3 3.3
2016-Jul-22 09:34N 54°30' E 018°44'1110.9
2016-Jul-22 08:33N 54°38' E 018°55'10 9.5
2016-Jul-22 07:33N 54°47' E 018°47'19 9.4
2016-Jul-22 05:34N 54°57' E 018°20'1110.6
2016-Jul-22 04:34N 54°55' E 018°01'1210.7
2016-Jul-22 03:26N 54°54' E 017°41'910.8
2016-Jul-22 02:34N 54°53' E 017°24'1110.8
2016-Jul-22 01:33N 54°51' E 017°06'1111.0
2016-Jul-22 00:33N 54°48' E 016°47'1410.9
2016-Jul-21 23:18N 54°46' E 016°24'911.0
2016-Jul-21 22:28N 54°44' E 016°08'1110.8
2016-Jul-21 21:28N 54°43' E 015°50'1010.9
2016-Jul-21 20:33N 54°41' E 015°33'1111.0
2016-Jul-21 19:33N 54°40' E 015°14'1110.7
2016-Jul-21 18:34N 54°38' E 014°56'1010.4
2016-Jul-21 17:33N 54°37' E 014°38'10 9.9
2016-Jul-21 16:34N 54°36' E 014°21'1010.1
2016-Jul-21 15:34N 54°40' E 014°05'1010.4
2016-Jul-21 14:34N 54°44' E 013°48'1010.4
2016-Jul-21 13:33N 54°47' E 013°31'1010.1
2016-Jul-21 12:33N 54°51' E 013°15'1010.5
2016-Jul-21 11:34N 54°48' E 012°58'1010.1
2016-Jul-21 10:33N 54°44' E 012°41'1110.7
2016-Jul-21 09:33N 54°38' E 012°26'1010.5
2016-Jul-21 08:33N 54°30' E 012°15'9 8.8
2016-Jul-21 07:34N 54°25' E 012°03'10 9.8
2016-Jul-21 06:33N 54°25' E 011°46'1010.3
2016-Jul-21 05:34N 54°29' E 011°30'  
Track history (hours):
 
Tides and Currents Weather Stations Pressure Air Temp Water Temp Dewpoint Dewpoint Depression Visibility Wind Speed Wind Dir Waves Ship Positions

Kitty C

Last reported at 2016-Jul-31 05:33 UTC. Time now 2016-Jul-31 07:25 UTC.
Position N 53°28' W 003°22'.

Length 106 m; draft 6.8 m.

Type: Cargo ship. MMSI: 235085464.

Date/timePositionNaut miles runAvg speedWind from/ knotsBaromVisibWave heightAir tempDewpointWater temp
2016-Jul-31 05:33N 53°28' W 003°22'0 0.0
2016-Jul-31 04:30N 53°28' W 003°22'0 0.0
2016-Jul-31 03:33N 53°28' W 003°22'0 0.1
2016-Jul-31 02:30N 53°28' W 003°23'0 0.0
2016-Jul-31 01:33N 53°28' W 003°23'0 0.0
2016-Jul-31 00:33N 53°28' W 003°23'0 0.0
2016-Jul-30 22:30N 53°28' W 003°23'0 0.2
2016-Jul-30 21:33N 53°28' W 003°22'0 0.1
2016-Jul-30 20:27N 53°28' W 003°22'0 0.0
2016-Jul-30 19:33N 53°28' W 003°22'0 0.0
2016-Jul-30 18:33N 53°28' W 003°22'0 0.0
2016-Jul-30 17:30N 53°28' W 003°22'0 0.0
2016-Jul-30 16:33N 53°28' W 003°22'0 0.0
2016-Jul-30 15:33N 53°28' W 003°22'0 0.0
2016-Jul-30 14:24N 53°28' W 003°22'0 0.1
2016-Jul-30 13:30N 53°28' W 003°23'0 0.0
2016-Jul-30 12:33N 53°28' W 003°23'2 1.6
2016-Jul-30 11:33N 53°29' W 003°25'9 9.0
2016-Jul-30 10:33N 53°30' W 003°40'103 9.4
2016-Jul-29 23:33N 52°13' W 005°32'12 8.5
2016-Jul-29 22:06N 52°01' W 005°38'77 9.9
2016-Jul-29 14:18N 50°45' W 005°51'710.0
2016-Jul-29 13:33N 50°37' W 005°51'1310.1
2016-Jul-29 12:18N 50°25' W 005°52'810.2
2016-Jul-29 11:32N 50°17' W 005°51'53 7.6
2016-Jul-29 04:33N 49°59' W 004°33'10 9.5
2016-Jul-29 03:31N 50°01' W 004°18'9 9.2
2016-Jul-29 02:29N 50°03' W 004°03'9 9.0
2016-Jul-29 01:28N 50°05' W 003°49'9 8.9
2016-Jul-29 00:30N 50°06' W 003°36'9 9.5
2016-Jul-28 23:34N 50°07' W 003°22'10 9.8
2016-Jul-28 22:33N 50°09' W 003°07'1110.7
2016-Jul-28 21:33N 50°11' W 002°51'1111.5
2016-Jul-28 20:34N 50°13' W 002°33'92 9.2
2016-Jul-28 10:33N 50°31' W 000°11'1110.8
2016-Jul-28 09:31N 50°33' E 000°06'1010.7
2016-Jul-28 08:32N 50°35' E 000°22'45 9.1
2016-Jul-28 03:33N 51°01' E 001°21'1010.5
2016-Jul-28 02:34N 51°08' E 001°35'1111.3
2016-Jul-28 01:33N 51°16' E 001°47'1111.2
2016-Jul-28 00:33N 51°26' E 001°53'1010.0
2016-Jul-27 23:34N 51°34' E 002°04'10 9.4
2016-Jul-27 22:32N 51°41' E 002°15'154 9.0
2016-Jul-27 05:33N 53°34' E 005°05'1110.7
2016-Jul-27 04:33N 53°37' E 005°22'1010.2
2016-Jul-27 03:34N 53°41' E 005°38'10 9.5
2016-Jul-27 02:34N 53°44' E 005°53'9 8.9
2016-Jul-27 01:33N 53°47' E 006°08'9 8.7
2016-Jul-27 00:34N 53°50' E 006°21'9 8.8
2016-Jul-26 23:34N 53°52' E 006°36'9 9.5
2016-Jul-26 22:33N 53°54' E 006°52'1110.5
2016-Jul-26 21:33N 53°57' E 007°09'1111.1
2016-Jul-26 20:33N 53°60' E 007°27'1111.1
2016-Jul-26 19:33N 54°02' E 007°46'1111.4
2016-Jul-26 18:33N 54°01' E 008°05'1511.5
2016-Jul-26 17:17N 53°59' E 008°30'7 9.5
2016-Jul-26 16:33N 53°56' E 008°40'8 7.7
2016-Jul-26 15:32N 53°51' E 008°50'7 7.6
2016-Jul-26 14:33N 53°52' E 009°03'4 4.0
2016-Jul-26 13:33N 53°54' E 009°09'4 3.6
2016-Jul-26 12:33N 53°56' E 009°13'8 8.1
2016-Jul-26 11:33N 54°04' E 009°19'27 6.4
2016-Jul-26 07:16N 54°21' E 009°55'5 6.5
2016-Jul-26 06:33N 54°22' E 010°03'3 2.8
2016-Jul-26 05:33N 54°22' E 010°08'1 0.5
2016-Jul-26 04:33N 54°22' E 010°09'3 3.1
2016-Jul-26 03:33N 54°24' E 010°12'20 8.8
2016-Jul-26 01:19N 54°35' E 010°41'7 9.2
2016-Jul-26 00:33N 54°36' E 010°53'9 8.6
2016-Jul-25 23:33N 54°37' E 011°08'9 8.8
2016-Jul-25 22:34N 54°33' E 011°22'9 9.1
2016-Jul-25 21:33N 54°29' E 011°36'8 8.5
2016-Jul-25 20:33N 54°26' E 011°49'9 9.3
2016-Jul-25 19:33N 54°26' E 012°05'9 9.1
2016-Jul-25 18:33N 54°34' E 012°13'10 9.3
2016-Jul-25 17:32N 54°41' E 012°25'9 9.6
2016-Jul-25 16:33N 54°46' E 012°39'9 9.3
2016-Jul-25 15:34N 54°50' E 012°53'9 9.3
2016-Jul-25 14:33N 54°53' E 013°09'9 9.3
2016-Jul-25 13:33N 54°50' E 013°25'1010.0
2016-Jul-25 12:33N 54°47' E 013°41'1010.0
2016-Jul-25 11:33N 54°44' E 013°57'1010.1
2016-Jul-25 10:33N 54°40' E 014°13'20 9.8
2016-Jul-25 08:33N 54°40' E 014°47'20 9.9
2016-Jul-25 06:32N 54°43' E 015°22'41 9.4
2016-Jul-25 02:11N 54°49' E 016°32'6 9.3
2016-Jul-25 01:33N 54°50' E 016°42'10 9.6
2016-Jul-25 00:33N 54°52' E 016°59'10 9.8
2016-Jul-24 23:33N 54°54' E 017°15'39 9.8
2016-Jul-24 19:33N 54°59' E 018°23'9 8.9
2016-Jul-24 18:33N 54°55' E 018°37'1110.6
2016-Jul-24 17:33N 54°47' E 018°48'10 9.7
2016-Jul-24 16:33N 54°38' E 018°56'1010.3
2016-Jul-24 15:33N 54°30' E 018°46'7 7.3
2016-Jul-24 14:33N 54°23' E 018°40'2 1.6
2016-Jul-24 13:31N 54°22' E 018°40'0 0.0
2016-Jul-24 12:31N 54°22' E 018°40'0 0.0
2016-Jul-24 11:31N 54°22' E 018°40'0 0.0
2016-Jul-24 10:31N 54°22' E 018°40'0 0.0
2016-Jul-24 09:31N 54°22' E 018°40'0 0.0
2016-Jul-24 08:28N 54°22' E 018°40'0 0.0
2016-Jul-24 07:31N 54°22' E 018°40'0 0.0
2016-Jul-24 06:31N 54°22' E 018°40'0 0.0
2016-Jul-24 05:31N 54°22' E 018°40'0 0.0
2016-Jul-24 04:31N 54°22' E 018°40'0 0.0
2016-Jul-24 03:31N 54°22' E 018°40'0 0.0
2016-Jul-24 02:31N 54°22' E 018°40'0 0.0
2016-Jul-24 01:31N 54°22' E 018°40'0 0.0
2016-Jul-24 00:31N 54°22' E 018°40'0 0.0
2016-Jul-23 23:31N 54°22' E 018°40'0 0.0
2016-Jul-23 22:31N 54°22' E 018°40'0 0.0
2016-Jul-23 21:31N 54°22' E 018°40'0 0.0
2016-Jul-23 20:31N 54°22' E 018°40'0 0.0
2016-Jul-23 19:31N 54°22' E 018°40'0 0.0
2016-Jul-23 18:31N 54°22' E 018°40'0 0.0
2016-Jul-23 17:31N 54°22' E 018°40'0 0.0
2016-Jul-23 16:31N 54°22' E 018°40'0 0.0
2016-Jul-23 15:28N 54°22' E 018°40'0 0.0
2016-Jul-23 14:31N 54°22' E 018°40'0 0.0
2016-Jul-23 13:31N 54°22' E 018°40'0 0.0
2016-Jul-23 12:31N 54°22' E 018°40'0 0.0
2016-Jul-23 11:31N 54°22' E 018°40'0 0.0
2016-Jul-23 10:31N 54°22' E 018°40'0 0.0
2016-Jul-23 09:31N 54°22' E 018°40'0 0.0
2016-Jul-23 08:31N 54°22' E 018°40'0 0.0
2016-Jul-23 07:31N 54°22' E 018°40'0 0.0
2016-Jul-23 06:31N 54°22' E 018°40'0 0.0
2016-Jul-23 04:31N 54°22' E 018°40'0 0.0
2016-Jul-23 03:31N 54°22' E 018°40'0 0.0
2016-Jul-23 02:31N 54°22' E 018°40'0 0.0
2016-Jul-23 01:31N 54°22' E 018°40'1 0.7
2016-Jul-23 00:33N 54°22' E 018°40'5 4.9
2016-Jul-22 23:32N 54°27' E 018°40'0 0.1
2016-Jul-22 22:32N 54°27' E 018°40'0 0.0
2016-Jul-22 21:32N 54°27' E 018°40'0 0.0
2016-Jul-22 20:32N 54°27' E 018°40'0 0.0
2016-Jul-22 19:32N 54°27' E 018°40'0 0.0
2016-Jul-22 18:32N 54°27' E 018°40'0 0.0
2016-Jul-22 17:32N 54°27' E 018°40'0 0.0
2016-Jul-22 16:32N 54°27' E 018°40'0 0.0
2016-Jul-22 15:29N 54°27' E 018°40'0 0.0
2016-Jul-22 14:32N 54°27' E 018°40'0 0.0
2016-Jul-22 13:32N 54°27' E 018°40'0 0.0
2016-Jul-22 12:32N 54°27' E 018°40'0 0.0
2016-Jul-22 11:32N 54°27' E 018°40'0 0.0
2016-Jul-22 10:32N 54°27' E 018°40'3 3.3
2016-Jul-22 09:34N 54°30' E 018°44'1110.9
2016-Jul-22 08:33N 54°38' E 018°55'10 9.5
2016-Jul-22 07:33N 54°47' E 018°47'19 9.4
2016-Jul-22 05:34N 54°57' E 018°20'1110.6
2016-Jul-22 04:34N 54°55' E 018°01'1210.7
2016-Jul-22 03:26N 54°54' E 017°41'910.8
2016-Jul-22 02:34N 54°53' E 017°24'1110.8
2016-Jul-22 01:33N 54°51' E 017°06'1111.0
2016-Jul-22 00:33N 54°48' E 016°47'1410.9
2016-Jul-21 23:18N 54°46' E 016°24'911.0
2016-Jul-21 22:28N 54°44' E 016°08'1110.8
2016-Jul-21 21:28N 54°43' E 015°50'1010.9
2016-Jul-21 20:33N 54°41' E 015°33'1111.0
2016-Jul-21 19:33N 54°40' E 015°14'1110.7
2016-Jul-21 18:34N 54°38' E 014°56'1010.4
2016-Jul-21 17:33N 54°37' E 014°38'10 9.9
2016-Jul-21 16:34N 54°36' E 014°21'1010.1
2016-Jul-21 15:34N 54°40' E 014°05'1010.4
2016-Jul-21 14:34N 54°44' E 013°48'1010.4
2016-Jul-21 13:33N 54°47' E 013°31'1010.1
2016-Jul-21 12:33N 54°51' E 013°15'1010.5
2016-Jul-21 11:34N 54°48' E 012°58'1010.1
2016-Jul-21 10:33N 54°44' E 012°41'1110.7
2016-Jul-21 09:33N 54°38' E 012°26'1010.5
2016-Jul-21 08:33N 54°30' E 012°15'9 8.8
2016-Jul-21 07:34N 54°25' E 012°03'10 9.8
2016-Jul-21 06:33N 54°25' E 011°46'1010.3
2016-Jul-21 05:34N 54°29' E 011°30'  

Dump ship's entire track history